Time;durP1;ratioP1;P1;durP2;ratioP2;P2;SDS_P1;SDS_P2;PMS_P1;PMS_P2;Temp;Humidity;BMP_temperature;BMP_pressure;BME280_temperature;BME280_humidity;BME280_pressure;Samples;Min_cycle;Max_cycle;Signal;HPM_P1;HPM_P2
2022/04/13 00:03:32;;;;;;;6.13;0.90;;;11.70;98.30;;;;;;10330505;28;20564;-86
2022/04/13 00:08:34;;;;;;;2.25;0.55;;;11.70;99.20;;;;;;10324275;28;20045;-86
2022/04/13 00:13:36;;;;;;;2.90;0.75;;;11.70;99.60;;;;;;10326624;28;20094;-87
2022/04/13 00:18:38;;;;;;;1.13;0.60;;;11.60;99.90;;;;;;10346298;28;20073;-86
2022/04/13 00:23:43;;;;;;;1.63;0.85;;;11.50;99.90;;;;;;10343245;28;20124;-87
2022/04/13 00:28:45;;;;;;;1.10;0.60;;;11.50;99.90;;;;;;10315158;28;20470;-87
2022/04/13 00:33:46;;;;;;;1.58;0.60;;;11.40;99.90;;;;;;10316817;28;20074;-86
2022/04/13 00:38:48;;;;;;;1.35;0.70;;;11.30;99.90;;;;;;10331685;28;20046;-87
2022/04/13 00:44:10;;;;;;;0.70;0.50;;;11.30;99.90;;;;;;10313095;28;20413;-86
2022/04/13 00:49:14;;;;;;;1.63;0.90;;;11.20;99.90;;;;;;10323524;28;20508;-87
2022/04/13 00:54:18;;;;;;;1.63;0.60;;;11.20;99.90;;;;;;10309407;28;20065;-87
2022/04/13 00:59:23;;;;;;;1.45;0.73;;;11.20;99.90;;;;;;10329248;28;20121;-86
2022/04/13 01:04:30;;;;;;;1.70;0.63;;;11.10;99.90;;;;;;10326782;28;20052;-87
2022/04/13 01:09:33;;;;;;;1.50;0.70;;;11.10;99.90;;;;;;10336085;28;20045;-87
2022/04/13 01:14:36;;;;;;;1.95;0.80;;;11.00;99.90;;;;;;10330618;28;20072;-86
2022/04/13 01:19:39;;;;;;;2.05;0.80;;;11.00;99.90;;;;;;10339407;28;20328;-87
2022/04/13 01:24:40;;;;;;;2.08;0.95;;;10.90;99.90;;;;;;10326270;28;20050;-86
2022/04/13 01:29:44;;;;;;;8.02;4.05;;;11.00;99.90;;;;;;10309809;28;20042;-87
2022/04/13 01:34:53;;;;;;;10.27;6.60;;;10.90;99.90;;;;;;10318491;28;20496;-87
2022/04/13 01:39:55;;;;;;;9.57;4.55;;;10.80;99.90;;;;;;10320734;28;20407;-87
2022/04/13 01:44:56;;;;;;;6.32;2.15;;;10.70;99.90;;;;;;10335510;28;20049;-87
2022/04/13 01:49:59;;;;;;;3.88;1.63;;;10.80;99.90;;;;;;10321381;28;20054;-87
2022/04/13 01:55:01;;;;;;;4.55;1.67;;;10.80;99.90;;;;;;10330720;28;20062;-87
2022/04/13 02:00:08;;;;;;;2.08;0.80;;;10.80;99.90;;;;;;10312263;28;20092;-87
2022/04/13 02:05:10;;;;;;;1.73;0.90;;;10.90;99.90;;;;;;10317682;28;20029;-86
2022/04/13 02:10:12;;;;;;;1.63;0.50;;;10.90;99.90;;;;;;10322535;28;20136;-87
2022/04/13 02:15:15;;;;;;;2.90;0.60;;;10.90;99.90;;;;;;10302428;28;20057;-86
2022/04/13 02:20:17;;;;;;;1.00;0.60;;;10.80;99.90;;;;;;10320605;28;20046;-87
2022/04/13 02:25:19;;;;;;;3.38;1.38;;;10.80;99.90;;;;;;10330427;28;20054;-86
2022/04/13 02:30:21;;;;;;;2.33;0.60;;;10.80;99.90;;;;;;10312922;28;20058;-87
2022/04/13 02:35:22;;;;;;;2.97;0.70;;;10.80;99.90;;;;;;10316012;28;20061;-87
2022/04/13 02:40:24;;;;;;;2.78;0.60;;;10.70;99.90;;;;;;10314973;28;20113;-87
2022/04/13 02:45:26;;;;;;;1.92;0.93;;;10.70;99.90;;;;;;10328244;28;20463;-87
2022/04/13 02:50:28;;;;;;;2.80;0.73;;;10.70;99.90;;;;;;10331267;28;20046;-87
2022/04/13 02:55:30;;;;;;;2.72;0.60;;;10.60;99.90;;;;;;10311330;28;20688;-87
2022/04/13 03:00:32;;;;;;;3.45;0.68;;;10.70;99.90;;;;;;10294361;28;20046;-87
2022/04/13 03:05:34;;;;;;;1.90;0.52;;;10.60;99.90;;;;;;10323949;28;20096;-87
2022/04/13 03:10:36;;;;;;;1.58;1.00;;;10.60;99.90;;;;;;10315065;28;20049;-87
2022/04/13 03:15:37;;;;;;;4.38;0.68;;;10.60;99.90;;;;;;10322387;28;20049;-87
2022/04/13 03:20:39;;;;;;;6.22;0.93;;;10.60;99.90;;;;;;10323305;28;20493;-87
2022/04/13 03:25:41;;;;;;;3.20;0.80;;;10.60;99.90;;;;;;10324159;28;20034;-87
2022/04/13 03:30:43;;;;;;;5.30;1.02;;;10.50;99.90;;;;;;10316307;28;20046;-87
2022/04/13 03:35:44;;;;;;;5.57;0.50;;;10.40;99.90;;;;;;10319089;28;20057;-87
2022/04/13 03:40:46;;;;;;;2.40;0.50;;;10.30;99.90;;;;;;10312769;28;20511;-87
2022/04/13 03:45:48;;;;;;;1.75;0.80;;;10.30;99.90;;;;;;10317372;28;20056;-87
2022/04/13 03:50:50;;;;;;;0.80;0.50;;;10.30;99.90;;;;;;10319936;28;20071;-87
2022/04/13 03:55:52;;;;;;;1.70;0.60;;;10.30;99.90;;;;;;10332161;28;20621;-87
2022/04/13 04:00:53;;;;;;;3.50;0.60;;;10.30;99.90;;;;;;10322117;28;20155;-86
2022/04/13 04:05:55;;;;;;;3.53;0.95;;;10.30;99.90;;;;;;10312293;28;20046;-87
2022/04/13 04:10:57;;;;;;;2.33;0.60;;;10.20;99.90;;;;;;10330133;28;20404;-86
2022/04/13 04:16:00;;;;;;;1.35;0.57;;;10.20;99.90;;;;;;10303020;28;20121;-87
2022/04/13 04:21:02;;;;;;;1.60;0.50;;;10.10;99.90;;;;;;10311096;28;20100;-87
2022/04/13 04:26:03;;;;;;;3.20;0.73;;;10.10;99.90;;;;;;10321174;28;20061;-87
2022/04/13 04:31:05;;;;;;;2.67;0.80;;;10.00;99.90;;;;;;10327371;28;20050;-87
2022/04/13 04:36:09;;;;;;;1.67;0.60;;;10.00;99.90;;;;;;10330817;28;20057;-87
2022/04/13 04:41:11;;;;;;;3.15;0.88;;;9.90;99.90;;;;;;10317067;28;20351;-87
2022/04/13 04:46:12;;;;;;;4.72;1.35;;;9.90;99.90;;;;;;10321453;28;20050;-86
2022/04/13 04:51:15;;;;;;;3.50;0.70;;;9.90;99.90;;;;;;10332699;28;20509;-86
2022/04/13 04:56:17;;;;;;;2.03;0.70;;;9.70;99.90;;;;;;10326214;28;20054;-87
2022/04/13 05:01:19;;;;;;;1.40;0.60;;;9.80;99.90;;;;;;10327917;28;20058;-87
2022/04/13 05:06:22;;;;;;;3.42;0.95;;;9.80;99.90;;;;;;10302107;28;20058;-87
2022/04/13 05:11:24;;;;;;;1.75;0.70;;;9.70;99.90;;;;;;10299578;28;20057;-87
2022/04/13 05:16:26;;;;;;;7.72;0.90;;;9.70;99.90;;;;;;10327583;28;20419;-87
2022/04/13 05:21:28;;;;;;;2.92;0.90;;;9.80;99.90;;;;;;10311397;28;20101;-86
2022/04/13 05:26:30;;;;;;;4.35;1.42;;;9.80;99.90;;;;;;10320363;28;20050;-86
2022/04/13 05:31:32;;;;;;;10.23;1.60;;;9.80;99.90;;;;;;10279625;28;20037;-86
2022/04/13 05:36:34;;;;;;;2.55;1.27;;;9.80;99.90;;;;;;10318051;28;20084;-87
2022/04/13 05:41:35;;;;;;;4.32;1.13;;;9.90;99.90;;;;;;10318957;28;20050;-87
2022/04/13 05:46:37;;;;;;;3.30;1.15;;;10.00;99.90;;;;;;10322233;28;21478;-86
2022/04/13 05:51:39;;;;;;;12.75;2.95;;;10.00;99.90;;;;;;10303182;28;20054;-87
2022/04/13 05:56:41;;;;;;;14.02;5.47;;;10.10;99.90;;;;;;10313857;28;20057;-86
2022/04/13 06:01:43;;;;;;;5.47;2.22;;;10.20;99.90;;;;;;10306230;28;20066;-87
2022/04/13 06:06:44;;;;;;;5.63;1.23;;;10.30;99.90;;;;;;10331812;28;20058;-87
2022/04/13 06:11:46;;;;;;;5.97;1.17;;;10.40;99.90;;;;;;10313876;28;20493;-87
2022/04/13 06:16:48;;;;;;;5.93;1.20;;;10.50;99.90;;;;;;10317825;28;20058;-86
2022/04/13 06:21:50;;;;;;;5.40;1.48;;;10.60;99.90;;;;;;10315630;28;20552;-86
2022/04/13 06:26:51;;;;;;;3.33;1.10;;;10.80;99.90;;;;;;10325296;28;20057;-87
2022/04/13 06:31:53;;;;;;;3.15;1.00;;;10.90;99.90;;;;;;10322966;28;20131;-86
2022/04/13 06:36:55;;;;;;;6.13;0.90;;;11.10;99.90;;;;;;10326669;28;20520;-87
2022/04/13 06:41:57;;;;;;;2.20;0.90;;;11.20;99.90;;;;;;10299132;28;20058;-87
2022/04/13 06:46:59;;;;;;;4.30;0.93;;;11.40;99.90;;;;;;10317905;28;20100;-87
2022/04/13 06:52:01;;;;;;;3.72;1.20;;;11.50;99.90;;;;;;10304097;28;20125;-87
2022/04/13 06:57:03;;;;;;;2.63;0.98;;;11.60;99.90;;;;;;10318061;28;20061;-86
2022/04/13 07:02:14;;;;;;;4.30;1.30;;;11.70;99.90;;;;;;10318101;28;20550;-87
2022/04/13 07:07:16;;;;;;;9.75;2.17;;;11.80;99.90;;;;;;10329403;28;20061;-86
2022/04/13 07:12:18;;;;;;;3.70;1.60;;;12.00;99.90;;;;;;10314975;28;20670;-87
2022/04/13 07:17:20;;;;;;;5.57;1.55;;;12.00;99.90;;;;;;10331239;28;20062;-87
2022/04/13 07:22:23;;;;;;;4.50;1.60;;;12.20;99.90;;;;;;10326227;28;21138;-87
2022/04/13 07:27:25;;;;;;;3.60;1.23;;;12.30;99.90;;;;;;10319243;28;20050;-87
2022/04/13 07:32:27;;;;;;;5.15;1.38;;;12.60;98.30;;;;;;10323022;28;20053;-87
2022/04/13 07:37:29;;;;;;;2.90;0.88;;;12.90;94.10;;;;;;10312677;28;20068;-87
2022/04/13 07:42:31;;;;;;;8.57;0.80;;;13.20;82.50;;;;;;10302303;28;20078;-87
2022/04/13 07:47:33;;;;;;;2.20;0.70;;;13.60;71.70;;;;;;10317866;28;20045;-87
2022/04/13 07:52:36;;;;;;;1.70;0.70;;;13.90;69.30;;;;;;10314921;28;20096;-87
2022/04/13 07:57:40;;;;;;;6.97;0.80;;;14.20;71.30;;;;;;10314652;28;20041;-87
2022/04/13 08:02:43;;;;;;;2.58;0.98;;;14.40;69.10;;;;;;10327457;28;20054;-87
2022/04/13 08:07:45;;;;;;;1.50;0.60;;;14.60;67.90;;;;;;10310178;28;20070;-87
2022/04/13 08:12:47;;;;;;;3.80;0.70;;;14.80;67.10;;;;;;10308558;28;20765;-87
2022/04/13 08:17:49;;;;;;;4.65;0.80;;;15.10;66.20;;;;;;10321719;28;20077;-87
2022/04/13 08:22:51;;;;;;;1.90;0.85;;;15.30;65.70;;;;;;10333660;28;20818;-87
2022/04/13 08:27:53;;;;;;;1.50;0.60;;;15.50;63.40;;;;;;10332238;28;20057;-87
2022/04/13 08:32:55;;;;;;;7.50;2.95;;;15.70;64.60;;;;;;10340179;28;20073;-87
2022/04/13 08:37:58;;;;;;;9.20;3.15;;;15.90;64.20;;;;;;10307308;28;20057;-87
2022/04/13 08:43:09;;;;;;;12.57;4.68;;;16.10;62.30;;;;;;10320100;28;20505;-87
2022/04/13 08:48:15;;;;;;;5.70;1.20;;;16.30;63.80;;;;;;10340359;28;20058;-87
2022/04/13 08:53:21;;;;;;;4.85;1.23;;;16.60;63.50;;;;;;10315555;28;20451;-88
2022/04/13 08:58:40;;;;;;;3.92;0.93;;;16.80;60.40;;;;;;10318143;28;20061;-88
2022/04/13 09:03:44;;;;;;;2.75;0.73;;;17.10;58.60;;;;;;10301449;28;20051;-88
2022/04/13 09:08:52;;;;;;;2.17;0.95;;;17.20;58.30;;;;;;10306963;28;20057;-87
2022/04/13 09:13:54;;;;;;;3.38;0.70;;;17.60;58.00;;;;;;10316514;28;20050;-88
2022/04/13 09:18:56;;;;;;;3.40;0.90;;;17.80;56.50;;;;;;10326251;28;20054;-88
2022/04/13 09:23:59;;;;;;;2.67;0.70;;;17.90;57.70;;;;;;10326383;28;20804;-87
2022/04/13 09:29:02;;;;;;;2.60;1.00;;;17.90;55.60;;;;;;10340136;28;20714;-87
2022/04/13 09:34:04;;;;;;;2.33;0.90;;;18.10;56.40;;;;;;10328082;28;20050;-87
2022/04/13 09:39:07;;;;;;;3.08;0.90;;;18.20;56.70;;;;;;10322230;28;20061;-87
2022/04/13 09:44:13;;;;;;;1.75;0.65;;;18.20;56.30;;;;;;10336571;28;20129;-87
2022/04/13 09:49:18;;;;;;;2.90;0.70;;;18.30;56.60;;;;;;10311911;28;20287;-87
2022/04/13 09:54:23;;;;;;;3.55;1.10;;;18.40;57.00;;;;;;10338652;28;20035;-87
2022/04/13 09:59:29;;;;;;;2.03;0.90;;;18.60;57.30;;;;;;10335889;28;20071;-87
2022/04/13 10:04:32;;;;;;;2.22;0.95;;;18.80;56.90;;;;;;10297068;28;20077;-87
2022/04/13 10:09:36;;;;;;;3.33;0.80;;;19.00;56.50;;;;;;10341939;28;20072;-87
2022/04/13 10:14:38;;;;;;;2.75;1.10;;;19.10;56.80;;;;;;10327427;28;20057;-88
2022/04/13 10:19:41;;;;;;;3.63;1.20;;;19.40;56.70;;;;;;10328382;28;20076;-88
2022/04/13 10:24:43;;;;;;;7.22;1.35;;;19.60;56.30;;;;;;10331064;28;20046;-88
2022/04/13 10:29:49;;;;;;;4.07;1.25;;;19.70;56.20;;;;;;10336546;28;20046;-88
2022/04/13 10:34:55;;;;;;;2.97;1.35;;;20.10;56.20;;;;;;10333635;28;20038;-88
2022/04/13 10:39:59;;;;;;;5.57;1.55;;;20.30;55.10;;;;;;10341118;28;20058;-88
2022/04/13 10:45:06;;;;;;;6.03;1.73;;;20.30;54.60;;;;;;10321716;28;20277;-88
2022/04/13 10:50:16;;;;;;;4.00;1.20;;;20.50;53.60;;;;;;10310775;28;20209;-88
2022/04/13 10:55:20;;;;;;;5.05;1.08;;;20.80;52.80;;;;;;10338279;28;20057;-88
2022/04/13 11:00:23;;;;;;;6.30;1.10;;;20.80;52.10;;;;;;10312031;28;20058;-89
2022/04/13 11:05:25;;;;;;;4.40;1.20;;;21.30;52.80;;;;;;10315065;28;20045;-88
2022/04/13 11:10:30;;;;;;;5.22;1.40;;;21.60;52.40;;;;;;10319112;28;20057;-88
2022/04/13 11:15:47;;;;;;;7.50;1.42;;;21.80;51.50;;;;;;10312526;28;20046;-88
2022/04/13 11:20:59;;;;;;;5.40;1.50;;;22.00;50.80;;;;;;10314735;28;20088;-88
2022/04/13 11:26:02;;;;;;;5.93;1.42;;;22.20;51.30;;;;;;10296055;28;20402;-88
2022/04/13 11:31:08;;;;;;;7.95;1.55;;;22.20;52.40;;;;;;10311093;28;20050;-88
2022/04/13 11:36:11;;;;;;;5.72;1.90;;;22.20;52.50;;;;;;10311421;28;20062;-88
2022/04/13 11:41:33;;;;;;;5.93;1.55;;;22.10;51.80;;;;;;10320493;28;20049;-88
2022/04/13 11:46:39;;;;;;;5.97;1.60;;;22.00;52.30;;;;;;10275286;28;20113;-88
2022/04/13 11:51:41;;;;;;;6.90;1.63;;;22.00;52.50;;;;;;10310729;28;20050;-88
2022/04/13 11:56:51;;;;;;;11.48;1.98;;;22.00;52.90;;;;;;10309867;28;20046;-88
2022/04/13 12:01:54;;;;;;;4.65;1.73;;;21.90;52.50;;;;;;10296125;28;20054;-88
2022/04/13 12:06:56;;;;;;;7.60;1.52;;;21.80;51.00;;;;;;10316630;28;20050;-88
2022/04/13 12:12:02;;;;;;;6.95;1.38;;;22.30;52.00;;;;;;10313188;28;20392;-88
2022/04/13 12:17:04;;;;;;;6.03;1.40;;;22.70;50.60;;;;;;10324427;28;20057;-88
2022/04/13 12:22:14;;;;;;;3.70;1.23;;;23.10;48.90;;;;;;10314262;28;20054;-88
2022/04/13 12:27:18;;;;;;;8.93;1.75;;;23.40;48.10;;;;;;10316284;28;20639;-88
2022/04/13 12:32:20;;;;;;;3.13;0.90;;;23.60;48.40;;;;;;10311226;28;20039;-88
2022/04/13 12:37:22;;;;;;;4.55;1.45;;;23.60;48.00;;;;;;10318721;28;20401;-88
2022/04/13 12:42:23;;;;;;;5.10;1.58;;;23.60;49.40;;;;;;10307670;28;20142;-88
2022/04/13 12:47:28;;;;;;;5.43;1.27;;;23.60;49.10;;;;;;10315533;28;20085;-88
2022/04/13 12:52:30;;;;;;;6.25;1.35;;;23.60;48.70;;;;;;10163654;28;20042;-88
2022/04/13 12:57:32;;;;;;;4.32;1.50;;;23.70;48.80;;;;;;10311752;28;20039;-88
2022/04/13 13:02:34;;;;;;;6.10;1.40;;;23.50;49.60;;;;;;10308190;28;20069;-88
2022/04/13 13:07:37;;;;;;;9.00;1.75;;;23.40;48.70;;;;;;10325183;28;20112;-88
2022/04/13 13:12:39;;;;;;;7.68;1.60;;;23.60;49.00;;;;;;10303140;28;20054;-88
2022/04/13 13:17:42;;;;;;;12.85;2.10;;;24.00;47.60;;;;;;10323400;28;20092;-88
2022/04/13 13:22:49;;;;;;;10.02;1.58;;;24.20;48.80;;;;;;10314483;28;20047;-88
2022/04/13 13:27:58;;;;;;;4.00;1.33;;;24.30;47.50;;;;;;10314629;28;20038;-88
2022/04/13 13:33:01;;;;;;;4.20;1.30;;;24.60;47.20;;;;;;10315585;28;20611;-88
2022/04/13 13:38:18;;;;;;;4.60;1.52;;;24.80;46.70;;;;;;10319107;28;20081;-89
2022/04/13 13:43:25;;;;;;;8.80;1.42;;;24.70;47.70;;;;;;10327917;28;20060;-88
2022/04/13 13:48:27;;;;;;;4.13;0.93;;;24.70;46.50;;;;;;10343919;28;20050;-88
2022/04/13 13:53:29;;;;;;;7.00;1.05;;;24.50;44.90;;;;;;10327845;28;20053;-88
2022/04/13 13:58:31;;;;;;;8.77;1.75;;;24.60;45.20;;;;;;10306855;28;20080;-87
2022/04/13 14:03:33;;;;;;;7.13;1.77;;;25.00;48.80;;;;;;10271132;28;20043;-88
2022/04/13 14:08:38;;;;;;;7.78;2.78;;;25.40;47.30;;;;;;10239467;28;20125;-88
2022/04/13 14:13:40;;;;;;;7.82;1.50;;;25.60;46.30;;;;;;10249613;28;20030;-88
2022/04/13 14:18:42;;;;;;;3.33;1.05;;;;;;;;;;10294479;28;20129;-89
2022/04/13 14:23:44;;;;;;;5.20;1.23;;;26.00;44.30;;;;;;10339022;28;20057;-86
2022/04/13 14:28:46;;;;;;;3.22;1.00;;;26.00;43.30;;;;;;10323472;28;20045;-87
2022/04/13 14:33:48;;;;;;;9.63;0.70;;;26.20;43.00;;;;;;10328311;28;20046;-87
2022/04/13 14:38:50;;;;;;;3.17;0.88;;;26.20;42.30;;;;;;10324342;28;20052;-88
2022/04/13 14:43:52;;;;;;;2.20;0.77;;;26.30;42.60;;;;;;10323359;28;20038;-88
2022/04/13 14:48:54;;;;;;;2.17;0.52;;;26.30;43.30;;;;;;10308566;28;20054;-88
2022/04/13 14:53:56;;;;;;;2.88;0.70;;;26.20;42.50;;;;;;10335376;28;20493;-88
2022/04/13 14:58:59;;;;;;;2.25;0.50;;;26.00;42.90;;;;;;10332387;28;20045;-88
2022/04/13 15:04:01;;;;;;;6.63;0.38;;;25.80;42.70;;;;;;10320050;28;20125;-88
2022/04/13 15:09:06;;;;;;;3.22;0.25;;;25.80;40.40;;;;;;10323294;28;20081;-88
2022/04/13 15:14:08;;;;;;;1.17;0.37;;;25.80;40.40;;;;;;10319785;28;20054;-88
2022/04/13 15:19:10;;;;;;;2.85;0.30;;;25.80;40.70;;;;;;10329289;28;20046;-88
2022/04/13 15:24:13;;;;;;;5.75;0.30;;;25.90;41.20;;;;;;10329285;28;20117;-88
2022/04/13 15:29:14;;;;;;;1.35;0.38;;;25.80;41.00;;;;;;10328355;28;20022;-88
2022/04/13 15:34:16;;;;;;;1.55;0.63;;;25.90;41.00;;;;;;10319361;28;20106;-88
2022/04/13 15:39:19;;;;;;;3.20;0.40;;;25.90;42.10;;;;;;10324865;28;20345;-88
2022/04/13 15:44:21;;;;;;;2.33;0.40;;;25.90;41.00;;;;;;10313342;28;20053;-88
2022/04/13 15:49:23;;;;;;;3.38;0.50;;;25.90;41.90;;;;;;10313812;28;20122;-88
2022/04/13 15:54:25;;;;;;;1.23;0.30;;;25.70;42.50;;;;;;10321683;28;20050;-88
2022/04/13 15:59:26;;;;;;;4.90;0.50;;;25.60;43.00;;;;;;10315102;28;20054;-88
2022/04/13 16:04:29;;;;;;;1.88;0.40;;;25.50;43.60;;;;;;10319410;28;20558;-88
2022/04/13 16:09:30;;;;;;;5.75;0.47;;;25.30;43.70;;;;;;10319486;28;20052;-88
2022/04/13 16:14:32;;;;;;;4.03;0.57;;;25.00;44.90;;;;;;10311398;28;20033;-90
2022/04/13 16:19:35;;;;;;;7.40;1.52;;;24.80;45.20;;;;;;10315359;28;20046;-89
2022/04/13 16:24:37;;;;;;;2.22;0.60;;;24.60;45.80;;;;;;10301739;28;20069;-88
2022/04/13 16:29:39;;;;;;;3.75;0.60;;;24.50;45.90;;;;;;10320238;28;20050;-89
2022/04/13 16:34:41;;;;;;;3.42;0.47;;;24.40;46.20;;;;;;10332801;28;20046;-88
2022/04/13 16:39:42;;;;;;;2.05;0.43;;;24.30;47.30;;;;;;10350851;28;20077;-88
2022/04/13 16:44:45;;;;;;;3.17;0.50;;;24.20;48.10;;;;;;10325996;28;20038;-88
2022/04/13 16:49:53;;;;;;;3.40;0.50;;;24.00;48.20;;;;;;10319687;28;20046;-88
2022/04/13 16:54:55;;;;;;;4.30;0.50;;;23.80;48.40;;;;;;10313751;28;20434;-87
2022/04/13 16:59:57;;;;;;;3.15;0.40;;;23.60;48.80;;;;;;10323218;28;20047;-88
2022/04/13 17:04:59;;;;;;;2.15;0.47;;;23.40;49.50;;;;;;10327150;28;20050;-88
2022/04/13 17:10:01;;;;;;;4.18;0.40;;;23.30;51.20;;;;;;10320700;28;20046;-88
2022/04/13 17:15:06;;;;;;;2.47;0.65;;;23.10;50.40;;;;;;10307043;28;20046;-88
2022/04/13 17:20:09;;;;;;;1.73;0.50;;;22.90;50.40;;;;;;10329507;28;20068;-88
2022/04/13 17:25:11;;;;;;;1.55;0.50;;;22.70;51.50;;;;;;10334132;28;20048;-88
2022/04/13 17:30:13;;;;;;;2.13;0.35;;;22.40;52.00;;;;;;10334437;28;20081;-87
2022/04/13 17:35:15;;;;;;;2.75;0.52;;;22.30;52.60;;;;;;10320570;28;20129;-87
2022/04/13 17:40:24;;;;;;;2.53;0.50;;;22.10;53.70;;;;;;10318170;28;23073;-87
2022/04/13 17:45:26;;;;;;;4.50;0.60;;;21.90;53.60;;;;;;10317039;28;20153;-88
2022/04/13 17:50:28;;;;;;;3.63;0.57;;;21.70;54.20;;;;;;10332540;28;20030;-88
2022/04/13 17:55:30;;;;;;;4.78;1.02;;;21.60;55.30;;;;;;10312206;28;20045;-88
2022/04/13 18:00:34;;;;;;;2.40;0.50;;;21.40;56.50;;;;;;10315417;28;20361;-88
2022/04/13 18:05:36;;;;;;;2.15;0.52;;;21.20;58.30;;;;;;10304359;28;20045;-88
2022/04/13 18:10:38;;;;;;;4.93;0.70;;;21.00;58.80;;;;;;10315695;28;20056;-88
2022/04/13 18:15:40;;;;;;;3.85;0.63;;;20.80;59.60;;;;;;10326738;28;20141;-88
2022/04/13 18:20:44;;;;;;;1.95;0.50;;;20.50;59.00;;;;;;10321830;28;20121;-87
2022/04/13 18:25:46;;;;;;;2.05;1.05;;;20.30;59.00;;;;;;10335937;28;20042;-87
2022/04/13 18:30:52;;;;;;;3.63;0.80;;;20.20;61.00;;;;;;10335472;28;20053;-87
2022/04/13 18:35:54;;;;;;;6.63;0.93;;;19.90;61.20;;;;;;10325723;28;20046;-87
2022/04/13 18:40:55;;;;;;;5.03;1.40;;;19.60;62.10;;;;;;10335922;28;20057;-87
2022/04/13 18:45:57;;;;;;;5.50;1.13;;;19.50;65.50;;;;;;10337919;28;20133;-87
2022/04/13 18:50:59;;;;;;;3.42;1.50;;;19.30;66.70;;;;;;10309264;28;20054;-87
2022/04/13 18:56:01;;;;;;;4.95;1.50;;;19.20;68.20;;;;;;10327590;28;20077;-87
2022/04/13 19:01:08;;;;;;;3.92;1.05;;;18.90;68.60;;;;;;10340711;28;20064;-87
2022/04/13 19:06:10;;;;;;;4.30;0.98;;;18.80;69.50;;;;;;10334084;28;20050;-87
2022/04/13 19:11:12;;;;;;;8.05;0.90;;;18.60;69.50;;;;;;10308483;28;20134;-87
2022/04/13 19:16:14;;;;;;;2.95;0.80;;;18.60;69.80;;;;;;10314662;28;20598;-87
2022/04/13 19:21:18;;;;;;;1.63;1.00;;;18.40;71.40;;;;;;10334422;28;20069;-87
2022/04/13 19:26:20;;;;;;;3.22;0.75;;;18.30;71.00;;;;;;10336224;28;20072;-87
2022/04/13 19:31:21;;;;;;;7.10;1.10;;;18.20;70.90;;;;;;10332722;28;20058;-87
2022/04/13 19:36:30;;;;;;;5.15;1.10;;;18.10;74.20;;;;;;10328148;28;20140;-87
2022/04/13 19:41:33;;;;;;;2.53;0.90;;;18.00;74.70;;;;;;10316295;28;20141;-87
2022/04/13 19:46:34;;;;;;;9.65;1.35;;;18.00;75.00;;;;;;10328242;28;20038;-88
2022/04/13 19:51:36;;;;;;;4.32;1.25;;;17.80;76.40;;;;;;10321765;28;20394;-87
2022/04/13 19:56:39;;;;;;;2.72;1.08;;;17.80;76.30;;;;;;10319741;28;20032;-88
2022/04/13 20:01:41;;;;;;;4.32;1.35;;;17.70;76.80;;;;;;10315947;28;20053;-87
2022/04/13 20:06:43;;;;;;;4.30;0.73;;;17.60;78.30;;;;;;10307585;28;20046;-87
2022/04/13 20:11:45;;;;;;;5.97;0.90;;;17.50;76.50;;;;;;10323907;28;20053;-87
2022/04/13 20:16:47;;;;;;;8.63;0.73;;;17.50;76.00;;;;;;10320540;28;20053;-87
2022/04/13 20:21:49;;;;;;;2.63;0.82;;;17.50;76.30;;;;;;10326357;28;20058;-87
2022/04/13 20:26:51;;;;;;;4.22;0.90;;;17.40;77.20;;;;;;10309053;28;20048;-87
2022/04/13 20:31:53;;;;;;;3.17;0.70;;;17.50;78.10;;;;;;10319817;28;20483;-87
2022/04/13 20:36:55;;;;;;;3.95;0.70;;;17.40;79.00;;;;;;10331522;28;20065;-87
2022/04/13 20:41:58;;;;;;;5.82;0.90;;;17.50;79.70;;;;;;10330526;28;20468;-87
2022/04/13 20:47:01;;;;;;;4.20;1.00;;;17.40;81.30;;;;;;10326790;28;20042;-87
2022/04/13 20:52:04;;;;;;;5.25;1.05;;;17.40;83.20;;;;;;10321755;28;20035;-87
2022/04/13 20:57:06;;;;;;;6.53;1.10;;;17.50;81.00;;;;;;10322448;28;20126;-87
2022/04/13 21:02:08;;;;;;;3.05;0.95;;;17.50;80.50;;;;;;10323472;28;20105;-87
2022/04/13 21:07:10;;;;;;;5.05;1.15;;;17.50;80.10;;;;;;10321104;28;20062;-87
2022/04/13 21:12:12;;;;;;;2.65;0.82;;;17.60;79.50;;;;;;10310078;28;20086;-87
2022/04/13 21:17:14;;;;;;;6.88;0.93;;;17.50;79.90;;;;;;10335563;28;20084;-87
2022/04/13 21:22:15;;;;;;;8.40;0.93;;;17.50;79.50;;;;;;10329298;28;20142;-87
2022/04/13 21:27:17;;;;;;;6.47;1.08;;;17.40;80.00;;;;;;10334963;28;20069;-87
2022/04/13 21:32:19;;;;;;;5.68;1.58;;;17.30;81.60;;;;;;10306508;28;20055;-87
2022/04/13 21:37:21;;;;;;;6.97;1.30;;;17.30;82.30;;;;;;10318981;28;20503;-86
2022/04/13 21:42:23;;;;;;;4.05;1.42;;;17.30;82.60;;;;;;10302468;28;20080;-86
2022/04/13 21:47:25;;;;;;;9.02;1.25;;;17.20;83.20;;;;;;10329132;28;20052;-86
2022/04/13 21:52:27;;;;;;;9.23;1.30;;;17.20;83.90;;;;;;10323077;28;20077;-87
2022/04/13 21:57:29;;;;;;;9.73;1.60;;;17.10;85.10;;;;;;10325801;28;20062;-87
2022/04/13 22:02:31;;;;;;;7.75;1.73;;;17.00;86.50;;;;;;10323014;28;20048;-86
2022/04/13 22:07:33;;;;;;;9.20;1.98;;;17.00;87.00;;;;;;10313767;28;20049;-87
2022/04/13 22:12:41;;;;;;;9.05;2.03;;;17.00;88.20;;;;;;10314148;28;20039;-87
2022/04/13 22:17:43;;;;;;;5.10;1.85;;;17.00;88.10;;;;;;10321544;28;20044;-88
2022/04/13 22:22:45;;;;;;;10.27;2.33;;;17.00;88.80;;;;;;10298142;28;20042;-88
2022/04/13 22:27:47;;;;;;;10.20;2.40;;;17.00;88.50;;;;;;10315069;28;20077;-87
2022/04/13 22:32:49;;;;;;;9.90;2.28;;;17.00;88.30;;;;;;10307606;28;20046;-87
2022/04/13 22:37:51;;;;;;;10.10;2.35;;;17.00;89.10;;;;;;10332444;28;20118;-88
2022/04/13 22:42:53;;;;;;;5.70;1.77;;;17.00;89.80;;;;;;10337427;28;20101;-88
2022/04/13 22:47:55;;;;;;;8.93;1.52;;;16.90;90.50;;;;;;10348919;28;20042;-88
2022/04/13 22:52:58;;;;;;;4.45;1.50;;;16.80;91.10;;;;;;10344925;28;20034;-88
2022/04/13 22:58:00;;;;;;;10.15;1.70;;;16.80;91.30;;;;;;10326454;28;20045;-87
2022/04/13 23:03:02;;;;;;;5.00;1.83;;;16.70;91.80;;;;;;10324129;28;20050;-88
2022/04/13 23:08:06;;;;;;;8.05;1.80;;;16.60;92.40;;;;;;10348190;28;20061;-87
2022/04/13 23:13:08;;;;;;;7.03;1.55;;;16.60;93.20;;;;;;10339266;28;20137;-86
2022/04/13 23:18:10;;;;;;;6.88;1.67;;;16.50;93.80;;;;;;10321812;28;20088;-88
2022/04/13 23:23:13;;;;;;;4.40;1.88;;;16.40;94.60;;;;;;10326061;28;20422;-87
2022/04/13 23:28:15;;;;;;;7.30;2.28;;;16.40;95.60;;;;;;10324961;28;20051;-86
2022/04/13 23:33:16;;;;;;;6.40;2.20;;;16.30;96.40;;;;;;10314983;28;20419;-86
2022/04/13 23:38:18;;;;;;;10.38;3.13;;;16.20;96.90;;;;;;10350604;28;20050;-87
2022/04/13 23:43:21;;;;;;;8.02;1.77;;;16.10;97.70;;;;;;10328504;28;20488;-86
2022/04/13 23:48:23;;;;;;;6.47;2.20;;;16.10;98.40;;;;;;10327016;28;20048;-87
2022/04/13 23:53:25;;;;;;;4.65;2.17;;;16.00;98.90;;;;;;10328858;28;20053;-86
2022/04/13 23:58:27;;;;;;;5.00;2.40;;;16.00;99.40;;;;;;10331312;28;20046;-88
